Time;durP1;ratioP1;P1;durP2;ratioP2;P2;SDS_P1;SDS_P2;PMS_P1;PMS_P2;Temp;Humidity;BMP_temperature;BMP_pressure;BME280_temperature;BME280_humidity;BME280_pressure;Samples;Min_cycle;Max_cycle;Signal;HPM_P1;HPM_P2
2023/06/26 00:00:05;;;;;;;2.53;0.90;;;;;;;17.06;100.00;100290.03;5031879;28;20590;-67
2023/06/26 00:02:32;;;;;;;5.38;1.30;;;;;;;16.97;100.00;100276.66;5022644;28;21117;-67
2023/06/26 00:05:02;;;;;;;3.25;1.20;;;;;;;16.96;100.00;100286.34;5019129;28;20137;-66
2023/06/26 00:07:30;;;;;;;2.40;0.90;;;;;;;17.06;100.00;100286.56;5027125;28;20054;-67
2023/06/26 00:09:58;;;;;;;3.75;1.10;;;;;;;17.06;100.00;100281.28;5028034;28;20068;-66
2023/06/26 00:12:25;;;;;;;2.95;1.08;;;;;;;17.02;100.00;100278.00;5026431;28;20053;-67
2023/06/26 00:14:52;;;;;;;7.50;1.60;;;;;;;17.12;100.00;100278.16;5030847;28;20041;-67
2023/06/26 00:17:19;;;;;;;3.47;1.13;;;;;;;16.96;100.00;100280.22;5020505;28;20140;-67
2023/06/26 00:19:46;;;;;;;1.95;1.00;;;;;;;16.78;100.00;100269.97;5020980;28;20065;-67
2023/06/26 00:22:12;;;;;;;4.28;1.10;;;;;;;16.85;100.00;100284.47;5026840;28;20141;-67
2023/06/26 00:24:39;;;;;;;4.55;1.20;;;;;;;16.70;100.00;100282.91;5025558;28;20056;-67
2023/06/26 00:27:06;;;;;;;4.03;1.10;;;;;;;16.78;100.00;100285.00;5032753;28;20499;-67
2023/06/26 00:29:33;;;;;;;3.67;1.27;;;;;;;16.56;100.00;100283.88;5027576;28;20611;-67
2023/06/26 00:32:00;;;;;;;4.78;1.33;;;;;;;16.62;100.00;100290.53;5028385;28;20506;-67
2023/06/26 00:34:27;;;;;;;2.20;1.00;;;;;;;16.60;100.00;100282.69;5020732;28;20052;-67
2023/06/26 00:36:54;;;;;;;4.25;1.30;;;;;;;16.51;100.00;100283.34;5028475;28;20136;-66
2023/06/26 00:39:20;;;;;;;3.63;1.17;;;;;;;16.45;100.00;100267.91;5030555;28;20053;-67
2023/06/26 00:41:47;;;;;;;4.93;1.65;;;;;;;16.39;100.00;100285.03;5031675;28;20055;-67
2023/06/26 00:44:14;;;;;;;3.95;1.20;;;;;;;16.39;100.00;100278.91;5027661;28;20067;-67
2023/06/26 00:46:41;;;;;;;4.60;1.27;;;;;;;16.12;100.00;100282.50;5029728;28;20095;-68
2023/06/26 00:49:09;;;;;;;5.00;1.35;;;;;;;16.19;100.00;100277.66;5028463;28;20580;-68
2023/06/26 00:51:36;;;;;;;4.78;1.20;;;;;;;16.18;100.00;100287.34;5030138;28;20085;-67
2023/06/26 00:54:02;;;;;;;2.40;1.05;;;;;;;16.18;100.00;100276.78;5027457;28;20501;-67
2023/06/26 00:56:31;;;;;;;3.92;1.10;;;;;;;16.13;100.00;100278.91;5019317;28;20137;-67
2023/06/26 00:58:58;;;;;;;2.92;1.20;;;;;;;16.05;100.00;100281.22;5025506;28;20046;-67
2023/06/26 01:01:25;;;;;;;4.82;1.30;;;;;;;15.91;100.00;100284.78;5021921;28;20046;-67
2023/06/26 01:03:53;;;;;;;7.45;1.70;;;;;;;15.85;100.00;100280.78;5030102;28;20052;-66
2023/06/26 01:06:23;;;;;;;3.90;1.23;;;;;;;15.79;100.00;100275.06;5030353;28;20046;-67
2023/06/26 01:08:51;;;;;;;5.90;1.35;;;;;;;15.90;100.00;100289.22;5031322;28;20049;-67
2023/06/26 01:11:19;;;;;;;7.10;1.58;;;;;;;15.78;100.00;100281.28;5026752;28;20051;-67
2023/06/26 01:13:46;;;;;;;3.08;1.20;;;;;;;15.85;100.00;100293.13;5023459;28;20097;-67
2023/06/26 01:16:19;;;;;;;6.25;1.48;;;;;;;15.69;100.00;100291.47;5029243;28;20049;-67
2023/06/26 01:18:48;;;;;;;3.90;1.27;;;;;;;15.53;100.00;100278.44;5027569;28;20057;-67
2023/06/26 01:21:17;;;;;;;5.38;1.20;;;;;;;15.52;100.00;100287.28;5030420;28;20056;-67
2023/06/26 01:23:59;;;;;;;5.75;1.20;;;;;;;15.61;100.00;100300.84;5029796;28;20053;-67
2023/06/26 01:26:29;;;;;;;3.30;1.17;;;;;;;15.49;100.00;100303.34;5027879;28;20073;-68
2023/06/26 01:28:58;;;;;;;4.75;1.23;;;;;;;15.43;100.00;100303.72;5022447;28;20103;-68
2023/06/26 01:31:27;;;;;;;4.50;1.50;;;;;;;15.37;100.00;100302.34;5025175;28;20117;-67
2023/06/26 01:33:55;;;;;;;4.75;1.50;;;;;;;15.38;100.00;100295.25;5028664;28;20049;-68
2023/06/26 01:36:22;;;;;;;3.72;1.30;;;;;;;15.26;100.00;100290.78;5029026;28;20056;-67
2023/06/26 01:38:49;;;;;;;3.97;1.20;;;;;;;15.31;100.00;100307.16;5030394;28;20495;-67
2023/06/26 01:41:16;;;;;;;4.47;1.35;;;;;;;15.24;100.00;100311.97;5029330;28;20067;-68
2023/06/26 01:44:11;;;;;;;5.82;1.30;;;;;;;15.21;100.00;100311.31;5030165;28;20133;-68
2023/06/26 01:46:57;;;;;;;5.10;1.30;;;;;;;15.22;100.00;100315.66;5012639;28;20054;-67
2023/06/26 01:49:29;;;;;;;3.88;1.30;;;;;;;15.12;100.00;100313.63;5016445;28;20046;-68
2023/06/26 01:52:11;;;;;;;3.10;1.10;;;;;;;15.13;100.00;100314.44;5015261;28;20057;-67
2023/06/26 01:54:57;;;;;;;5.70;1.75;;;;;;;15.09;100.00;100310.31;5027705;28;20045;-67
2023/06/26 01:57:26;;;;;;;4.20;1.35;;;;;;;14.97;100.00;100302.22;5027329;28;20152;-68
2023/06/26 01:59:54;;;;;;;3.67;1.25;;;;;;;15.08;100.00;100298.91;5029265;28;20140;-67
2023/06/26 02:02:24;;;;;;;7.68;1.88;;;;;;;15.05;100.00;100317.59;5027521;28;20049;-68
2023/06/26 02:04:51;;;;;;;4.60;1.50;;;;;;;14.94;100.00;100314.75;5024450;28;20460;-68
2023/06/26 02:07:18;;;;;;;6.78;1.90;;;;;;;14.94;100.00;100315.63;5025157;28;20046;-68
2023/06/26 02:09:45;;;;;;;3.70;1.30;;;;;;;14.90;100.00;100308.00;5019558;28;20108;-68
2023/06/26 02:12:12;;;;;;;5.55;1.42;;;;;;;14.77;100.00;100298.22;5030494;28;20148;-68
2023/06/26 02:14:39;;;;;;;4.03;1.27;;;;;;;14.93;100.00;100321.00;5028232;28;20055;-67
2023/06/26 02:17:08;;;;;;;3.90;1.40;;;;;;;14.94;100.00;100318.25;5029325;28;20057;-67
2023/06/26 02:19:35;;;;;;;4.22;1.20;;;;;;;14.94;100.00;100312.13;5019718;28;20057;-67
2023/06/26 02:22:02;;;;;;;4.47;1.50;;;;;;;14.78;100.00;100306.97;5028142;28;20156;-67
2023/06/26 02:24:30;;;;;;;3.80;1.33;;;;;;;14.72;100.00;100316.09;5027377;28;20136;-67
2023/06/26 02:27:01;;;;;;;6.03;1.30;;;;;;;14.67;100.00;100328.69;5029941;28;20053;-67
2023/06/26 02:29:28;;;;;;;3.97;1.40;;;;;;;14.72;100.00;100326.63;5021647;28;20474;-67
2023/06/26 02:31:55;;;;;;;7.88;1.42;;;;;;;14.83;100.00;100318.06;5027016;28;20041;-67
2023/06/26 02:34:21;;;;;;;4.05;1.48;;;;;;;14.82;100.00;100316.38;5020356;28;20081;-67
2023/06/26 02:36:48;;;;;;;4.18;1.73;;;;;;;14.90;100.00;100326.44;5028840;28;20415;-67
2023/06/26 02:39:15;;;;;;;2.85;1.20;;;;;;;14.87;100.00;100311.66;5029878;28;20526;-67
2023/06/26 02:41:43;;;;;;;3.63;1.20;;;;;;;14.97;100.00;100319.84;5029475;28;20503;-67
2023/06/26 02:44:12;;;;;;;4.50;1.45;;;;;;;14.82;100.00;100324.28;5024392;28;20081;-66
2023/06/26 02:46:38;;;;;;;4.47;1.23;;;;;;;14.83;100.00;100325.13;5028765;28;20053;-67
2023/06/26 02:49:05;;;;;;;4.85;1.70;;;;;;;14.80;100.00;100319.13;5029949;28;20542;-67
2023/06/26 02:51:33;;;;;;;5.45;1.98;;;;;;;14.77;100.00;100335.09;5029381;28;20458;-67
2023/06/26 02:54:00;;;;;;;6.97;1.50;;;;;;;14.74;100.00;100337.91;5027314;28;20041;-67
2023/06/26 02:56:28;;;;;;;3.35;1.35;;;;;;;14.78;100.00;100330.69;5021982;28;20129;-67
2023/06/26 02:58:56;;;;;;;3.85;1.40;;;;;;;14.71;100.00;100334.63;5027846;28;20045;-67
2023/06/26 03:01:23;;;;;;;8.48;1.65;;;;;;;14.71;100.00;100332.00;5029144;28;20042;-67
2023/06/26 03:03:50;;;;;;;3.95;1.48;;;;;;;14.69;100.00;100337.34;5017703;28;20042;-67
2023/06/26 03:06:17;;;;;;;7.15;1.27;;;;;;;14.64;100.00;100328.03;5028682;28;20479;-67
2023/06/26 03:08:43;;;;;;;6.57;1.52;;;;;;;14.71;100.00;100337.25;5028612;28;20053;-67
2023/06/26 03:11:10;;;;;;;5.60;1.25;;;;;;;14.72;100.00;100337.19;5025606;28;20060;-66
2023/06/26 03:13:37;;;;;;;4.38;1.45;;;;;;;14.74;100.00;100351.09;5028105;28;20056;-66
2023/06/26 03:16:04;;;;;;;4.25;1.40;;;;;;;14.60;100.00;100343.19;5028975;28;20157;-67
2023/06/26 03:18:31;;;;;;;5.05;1.55;;;;;;;14.76;100.00;100351.00;5029056;28;20064;-67
2023/06/26 03:21:00;;;;;;;4.30;1.33;;;;;;;14.76;100.00;100353.66;5026424;28;20537;-68
2023/06/26 03:23:27;;;;;;;4.45;1.42;;;;;;;14.68;100.00;100342.72;5027762;28;20053;-68
2023/06/26 03:25:54;;;;;;;3.78;1.33;;;;;;;14.75;100.00;100359.84;5022630;28;20045;-68
2023/06/26 03:28:20;;;;;;;4.50;1.50;;;;;;;14.73;100.00;100338.00;5029235;28;20414;-68
2023/06/26 03:30:47;;;;;;;4.35;1.65;;;;;;;14.81;100.00;100344.50;5015592;28;20046;-68
2023/06/26 03:33:14;;;;;;;4.15;1.42;;;;;;;14.86;100.00;100351.31;5024067;28;21246;-67
2023/06/26 03:35:41;;;;;;;3.97;1.40;;;;;;;14.93;100.00;100360.53;5028461;28;20487;-68
2023/06/26 03:38:07;;;;;;;6.15;1.80;;;;;;;14.98;100.00;100354.03;5041345;28;20059;-68
2023/06/26 03:40:34;;;;;;;5.25;1.60;;;;;;;15.05;100.00;100356.25;5035643;28;20140;-68
2023/06/26 03:43:02;;;;;;;7.35;1.80;;;;;;;14.93;100.00;100355.25;5049607;28;20162;-68
2023/06/26 03:45:29;;;;;;;3.47;1.40;;;;;;;14.92;100.00;100354.38;5024669;28;20180;-67
2023/06/26 03:47:55;;;;;;;4.90;1.50;;;;;;;14.96;100.00;100349.78;5039037;28;20068;-68
2023/06/26 03:50:22;;;;;;;5.55;1.70;;;;;;;15.05;100.00;100358.91;5032197;28;20454;-67
2023/06/26 03:52:50;;;;;;;5.03;1.80;;;;;;;14.94;100.00;100365.72;5034202;28;20100;-67
2023/06/26 03:55:18;;;;;;;5.10;1.38;;;;;;;14.95;100.00;100361.28;5033940;28;20049;-68
2023/06/26 03:57:45;;;;;;;5.03;1.48;;;;;;;14.83;100.00;100317.22;5036087;28;20053;-67
2023/06/26 04:00:13;;;;;;;4.68;1.40;;;;;;;14.87;100.00;100356.47;5031983;28;20083;-68
2023/06/26 04:02:40;;;;;;;8.25;1.67;;;;;;;14.93;100.00;100342.91;5039267;28;20457;-68
2023/06/26 04:05:07;;;;;;;6.22;1.67;;;;;;;15.12;100.00;100360.22;5030601;28;20042;-68
2023/06/26 04:07:35;;;;;;;4.90;1.60;;;;;;;14.93;100.00;100368.44;5032859;28;20505;-68
2023/06/26 04:10:02;;;;;;;16.20;1.70;;;;;;;14.98;100.00;100363.72;5032390;28;20058;-68
2023/06/26 04:12:29;;;;;;;4.80;1.40;;;;;;;14.98;100.00;100364.56;5026438;28;20577;-68
2023/06/26 04:14:56;;;;;;;6.35;1.77;;;;;;;15.53;100.00;100370.78;5032171;28;20045;-67
2023/06/26 04:17:22;;;;;;;7.32;1.92;;;;;;;16.27;100.00;100386.25;5043878;28;20049;-67
2023/06/26 04:19:49;;;;;;;7.78;1.75;;;;;;;16.60;100.00;100366.44;5031328;28;20053;-67
2023/06/26 04:22:16;;;;;;;7.80;2.10;;;;;;;16.84;100.00;100380.63;5029132;28;20087;-67
2023/06/26 04:24:45;;;;;;;5.68;1.80;;;;;;;17.02;100.00;100381.16;5036383;28;20650;-68
2023/06/26 04:27:13;;;;;;;6.88;2.10;;;;;;;17.17;100.00;100396.88;5031721;28;20562;-68
2023/06/26 04:29:40;;;;;;;6.03;1.80;;;;;;;17.27;100.00;100397.94;5035515;28;20045;-68
2023/06/26 04:32:07;;;;;;;7.03;1.58;;;;;;;17.26;100.00;100398.88;5032521;28;20076;-68
2023/06/26 04:34:36;;;;;;;4.13;1.40;;;;;;;16.79;100.00;100405.69;5023813;28;20486;-68
2023/06/26 04:37:06;;;;;;;8.80;2.17;;;;;;;17.21;100.00;100401.00;5032131;28;20461;-68
2023/06/26 04:39:32;;;;;;;5.82;2.08;;;;;;;17.67;100.00;100410.97;5029254;28;20145;-68
2023/06/26 04:41:59;;;;;;;7.10;1.80;;;;;;;17.65;100.00;100399.59;5025613;28;20087;-68
2023/06/26 04:44:26;;;;;;;7.32;1.80;;;;;;;16.82;100.00;100406.31;5026828;28;20436;-67
2023/06/26 04:46:52;;;;;;;4.28;1.30;;;;;;;16.69;100.00;100402.81;5036875;28;20132;-68
2023/06/26 04:49:19;;;;;;;6.43;1.65;;;;;;;16.46;100.00;100405.22;5039860;28;20059;-68
2023/06/26 04:51:48;;;;;;;4.82;1.55;;;;;;;16.47;100.00;100411.34;5030558;28;20056;-68
2023/06/26 04:54:15;;;;;;;6.45;1.65;;;;;;;16.26;100.00;100411.00;5022305;28;20127;-68
2023/06/26 04:56:43;;;;;;;4.90;1.63;;;;;;;16.22;100.00;100415.63;5032960;28;20046;-68
2023/06/26 04:59:13;;;;;;;6.00;1.40;;;;;;;15.83;100.00;100408.50;5035927;28;20499;-67
2023/06/26 05:01:40;;;;;;;5.80;1.48;;;;;;;15.86;100.00;100416.25;5031491;28;20168;-68
2023/06/26 05:04:08;;;;;;;7.03;2.22;;;;;;;15.86;100.00;100416.25;5032181;28;20056;-68
2023/06/26 05:06:34;;;;;;;7.03;2.20;;;;;;;15.81;100.00;100420.97;5044925;28;20067;-67
2023/06/26 05:09:02;;;;;;;4.78;1.73;;;;;;;15.82;100.00;100417.41;5029345;28;20080;-68
2023/06/26 05:11:28;;;;;;;5.57;1.63;;;;;;;16.10;100.00;100422.56;5028581;28;20137;-68
2023/06/26 05:13:55;;;;;;;4.25;1.58;;;;;;;15.96;100.00;100416.50;5028704;28;20077;-68
2023/06/26 05:16:22;;;;;;;4.70;1.90;;;;;;;16.03;100.00;100418.63;5031262;28;20509;-68
2023/06/26 05:18:49;;;;;;;8.63;2.00;;;;;;;15.89;100.00;100410.78;5028759;28;20048;-67
2023/06/26 05:21:16;;;;;;;6.40;1.88;;;;;;;16.10;100.00;100409.38;5024464;28;20053;-68
2023/06/26 05:23:44;;;;;;;5.43;1.65;;;;;;;16.65;100.00;100412.75;5024448;28;20140;-68
2023/06/26 05:26:13;;;;;;;4.95;1.67;;;;;;;16.64;100.00;100412.84;5028048;28;20411;-68
2023/06/26 05:28:40;;;;;;;4.65;1.60;;;;;;;16.72;100.00;100429.03;5025715;28;20119;-68
2023/06/26 05:31:07;;;;;;;5.07;1.48;;;;;;;17.34;100.00;100425.66;5024621;28;20084;-68
2023/06/26 05:33:36;;;;;;;6.13;1.70;;;;;;;17.97;100.00;100433.53;5019065;28;20526;-68
2023/06/26 05:36:04;;;;;;;4.38;1.30;;;;;;;18.73;100.00;100423.41;5020846;28;20073;-68
2023/06/26 05:38:31;;;;;;;6.53;1.65;;;;;;;18.82;100.00;100422.72;5020791;28;20553;-68
2023/06/26 05:40:58;;;;;;;6.15;1.77;;;;;;;19.13;100.00;100429.16;5018118;28;20077;-67
2023/06/26 05:43:24;;;;;;;9.02;1.80;;;;;;;19.50;100.00;100433.38;5025094;28;20041;-66
2023/06/26 05:45:54;;;;;;;7.03;1.85;;;;;;;19.47;100.00;100423.81;5026249;28;20483;-67
2023/06/26 05:48:21;;;;;;;5.18;1.60;;;;;;;19.99;100.00;100449.81;5027658;28;20418;-67
2023/06/26 05:50:48;;;;;;;6.95;1.40;;;;;;;20.03;100.00;100444.16;5019664;28;20060;-67
2023/06/26 05:53:15;;;;;;;4.70;1.50;;;;;;;20.36;100.00;100445.00;5028020;28;20071;-68
2023/06/26 05:55:43;;;;;;;8.07;1.65;;;;;;;20.33;100.00;100442.59;5024776;28;20053;-67
2023/06/26 05:58:11;;;;;;;5.63;1.60;;;;;;;20.36;100.00;100438.81;5026444;28;20053;-67
2023/06/26 06:00:41;;;;;;;6.60;1.45;;;;;;;20.43;100.00;100445.31;5026080;28;20049;-68
2023/06/26 06:03:10;;;;;;;6.00;1.60;;;;;;;20.04;100.00;100442.31;5017801;28;20637;-68
2023/06/26 06:05:37;;;;;;;4.38;1.27;;;;;;;20.49;100.00;100442.97;5017606;28;20041;-68
2023/06/26 06:08:04;;;;;;;6.22;1.50;;;;;;;20.90;100.00;100453.78;5015660;28;20507;-68
2023/06/26 06:10:31;;;;;;;4.18;1.30;;;;;;;20.62;100.00;100449.97;5027733;28;20475;-68
2023/06/26 06:12:58;;;;;;;5.53;1.52;;;;;;;20.69;100.00;100458.28;5023986;28;20049;-69
2023/06/26 06:15:24;;;;;;;4.25;1.23;;;;;;;20.58;100.00;100445.84;5026684;28;20053;-68
2023/06/26 06:17:53;;;;;;;4.63;1.23;;;;;;;20.19;100.00;100459.69;5026771;28;20392;-68
2023/06/26 06:20:20;;;;;;;7.75;1.83;;;;;;;20.09;100.00;100459.56;5026206;28;20084;-68
2023/06/26 06:22:48;;;;;;;4.55;1.45;;;;;;;20.40;100.00;100458.88;5021394;28;20123;-68
2023/06/26 06:25:15;;;;;;;5.95;1.50;;;;;;;20.64;100.00;100459.47;5019955;28;20080;-68
2023/06/26 06:27:43;;;;;;;8.00;1.65;;;;;;;21.15;100.00;100460.47;5029521;28;20089;-68
2023/06/26 06:30:10;;;;;;;4.82;1.40;;;;;;;21.17;100.00;100439.91;5028579;28;20041;-68
2023/06/26 06:32:37;;;;;;;4.60;1.25;;;;;;;21.58;100.00;100459.44;5029337;28;20420;-68
2023/06/26 06:35:09;;;;;;;6.13;1.70;;;;;;;21.60;100.00;100453.94;5022805;28;20100;-68
2023/06/26 06:37:38;;;;;;;6.55;1.80;;;;;;;21.85;100.00;100462.41;5029741;28;20053;-68
2023/06/26 06:40:06;;;;;;;5.78;1.48;;;;;;;22.06;100.00;100459.66;5025999;28;20054;-68
2023/06/26 06:42:33;;;;;;;7.70;1.73;;;;;;;22.16;100.00;100463.16;5028088;28;20048;-68
2023/06/26 06:45:04;;;;;;;6.40;1.50;;;;;;;22.23;100.00;100466.97;5028404;28;20045;-68
2023/06/26 06:47:32;;;;;;;7.30;1.42;;;;;;;22.02;100.00;100461.75;5027209;28;20710;-68
2023/06/26 06:50:07;;;;;;;5.57;1.23;;;;;;;22.40;100.00;100470.81;5028621;28;20417;-68
2023/06/26 06:52:40;;;;;;;3.28;0.93;;;;;;;22.23;100.00;100460.78;5023040;28;20149;-68
2023/06/26 06:55:10;;;;;;;7.00;1.33;;;;;;;23.03;100.00;100480.09;5041190;28;20405;-68
2023/06/26 06:57:39;;;;;;;11.95;2.40;;;;;;;22.60;100.00;100476.13;5019438;28;20050;-68
2023/06/26 07:00:11;;;;;;;5.18;1.23;;;;;;;22.50;100.00;100476.94;5021183;28;20050;-68
2023/06/26 07:02:38;;;;;;;7.27;1.30;;;;;;;22.90;100.00;100472.41;5027162;28;20045;-68
2023/06/26 07:05:06;;;;;;;3.28;1.08;;;;;;;22.64;100.00;100467.66;5021485;28;20055;-68
2023/06/26 07:07:34;;;;;;;5.53;1.05;;;;;;;22.82;100.00;100469.63;5028163;28;20129;-68
2023/06/26 07:10:13;;;;;;;5.95;1.33;;;;;;;23.00;100.00;100477.72;5027820;28;20056;-68
2023/06/26 07:12:40;;;;;;;8.43;1.35;;;;;;;22.82;100.00;100474.94;5021337;28;20066;-68
2023/06/26 07:15:07;;;;;;;5.20;1.30;;;;;;;22.80;100.00;100475.09;5026263;28;20063;-68
2023/06/26 07:17:34;;;;;;;5.28;1.20;;;;;;;23.01;100.00;100469.56;5032345;28;20087;-68
2023/06/26 07:20:06;;;;;;;8.75;1.20;;;;;;;23.43;100.00;100476.34;5032570;28;20091;-67
2023/06/26 07:22:34;;;;;;;4.88;1.38;;;;;;;23.34;100.00;100458.50;5030113;28;20059;-66
2023/06/26 07:25:01;;;;;;;6.97;1.25;;;;;;;23.03;100.00;100474.75;5027488;28;20446;-67
2023/06/26 07:27:28;;;;;;;7.05;1.65;;;;;;;23.07;100.00;100476.19;5032085;28;20046;-67
2023/06/26 07:29:55;;;;;;;5.53;1.20;;;;;;;23.54;100.00;100476.13;5032704;28;20050;-67
2023/06/26 07:32:22;;;;;;;5.28;1.20;;;;;;;23.89;100.00;100479.94;5033164;28;20068;-66
2023/06/26 07:34:48;;;;;;;2.90;0.75;;;;;;;24.04;100.00;100477.56;5032561;28;20053;-67
2023/06/26 07:37:15;;;;;;;5.25;0.93;;;;;;;23.32;100.00;100469.38;5033085;28;20049;-67
2023/06/26 07:39:42;;;;;;;4.45;0.93;;;;;;;23.90;100.00;100476.25;5032265;28;20422;-67
2023/06/26 07:42:09;;;;;;;5.13;1.10;;;;;;;23.69;100.00;100476.47;5044670;28;20076;-67
2023/06/26 07:44:35;;;;;;;8.13;1.60;;;;;;;23.22;100.00;100482.75;5026566;28;20052;-66
2023/06/26 07:47:02;;;;;;;6.18;1.33;;;;;;;23.65;100.00;100469.75;5026215;28;20038;-67
2023/06/26 07:49:29;;;;;;;4.75;1.00;;;;;;;23.63;100.00;100477.91;5031714;28;20096;-67
2023/06/26 07:51:56;;;;;;;4.43;1.00;;;;;;;23.69;100.00;100473.81;5024926;28;20059;-67
2023/06/26 07:54:23;;;;;;;8.63;1.30;;;;;;;23.58;100.00;100479.34;5030845;28;20088;-67
2023/06/26 07:57:01;;;;;;;7.88;1.58;;;;;;;23.48;100.00;100482.94;5026396;28;20054;-67
2023/06/26 07:59:29;;;;;;;5.07;1.35;;;;;;;23.47;100.00;100475.88;5031309;28;20050;-66
2023/06/26 08:01:57;;;;;;;6.53;1.00;;;;;;;23.61;100.00;100479.06;5031917;28;20053;-67
2023/06/26 08:04:26;;;;;;;6.03;1.23;;;;;;;23.24;100.00;100482.59;5024489;28;20064;-67
2023/06/26 08:06:55;;;;;;;5.50;1.25;;;;;;;23.83;100.00;100488.53;5026470;28;20410;-67
2023/06/26 08:09:24;;;;;;;4.32;1.27;;;;;;;24.19;100.00;100492.09;5025801;28;20041;-66
2023/06/26 08:11:51;;;;;;;6.07;0.82;;;;;;;24.54;100.00;100481.56;5031605;28;20061;-67
2023/06/26 08:14:18;;;;;;;7.43;1.17;;;;;;;24.03;100.00;100482.06;5026662;28;20071;-67
2023/06/26 08:16:46;;;;;;;7.10;1.48;;;;;;;24.15;100.00;100485.38;5030493;28;20422;-67
2023/06/26 08:19:14;;;;;;;7.63;1.13;;;;;;;23.65;100.00;100494.63;5032243;28;20049;-67
2023/06/26 08:21:42;;;;;;;4.88;1.08;;;;;;;24.05;100.00;100489.94;5031808;28;20535;-67
2023/06/26 08:24:21;;;;;;;3.72;1.05;;;;;;;24.15;100.00;100492.53;5029933;28;20072;-66
2023/06/26 08:26:48;;;;;;;5.72;1.15;;;;;;;23.77;100.00;100489.94;5029737;28;20052;-66
2023/06/26 08:29:15;;;;;;;6.32;1.10;;;;;;;23.27;100.00;100490.34;5031332;28;20148;-66
2023/06/26 08:31:43;;;;;;;3.25;1.00;;;;;;;23.64;100.00;100509.00;5035094;28;20055;-66
2023/06/26 08:34:09;;;;;;;7.28;0.98;;;;;;;23.22;100.00;100505.94;5026307;28;20145;-66
2023/06/26 08:36:36;;;;;;;5.10;1.27;;;;;;;23.39;100.00;100507.84;5032625;28;20049;-67
2023/06/26 08:39:05;;;;;;;4.88;0.93;;;;;;;23.72;100.00;100492.22;5036463;28;20051;-67
2023/06/26 08:41:32;;;;;;;8.38;1.00;;;;;;;23.92;100.00;100498.34;5033691;28;20550;-67
2023/06/26 08:43:59;;;;;;;7.65;0.98;;;;;;;23.93;100.00;100501.84;5028510;28;20083;-67
2023/06/26 08:46:26;;;;;;;4.20;0.95;;;;;;;24.04;100.00;100507.81;5046365;28;20041;-67
2023/06/26 08:48:57;;;;;;;6.18;1.02;;;;;;;23.76;100.00;100514.16;5025025;28;20049;-67
2023/06/26 08:51:25;;;;;;;3.80;1.00;;;;;;;23.39;100.00;100515.00;5031608;28;20046;-68
2023/06/26 08:54:00;;;;;;;5.90;1.10;;;;;;;24.00;100.00;100514.47;5029315;28;20041;-67
2023/06/26 08:56:40;;;;;;;5.68;1.33;;;;;;;23.74;100.00;100500.94;5027210;28;20137;-68
2023/06/26 08:59:10;;;;;;;6.65;1.20;;;;;;;24.02;100.00;100522.34;5020892;28;20055;-68
2023/06/26 09:01:37;;;;;;;7.68;1.45;;;;;;;23.65;100.00;100517.84;5031017;28;20099;-68
2023/06/26 09:04:04;;;;;;;5.90;1.35;;;;;;;24.18;100.00;100524.34;5029810;28;20508;-67
2023/06/26 09:06:32;;;;;;;5.68;1.30;;;;;;;23.78;100.00;100517.50;5030485;28;20041;-68
2023/06/26 09:08:58;;;;;;;8.90;1.38;;;;;;;23.75;100.00;100510.63;5027279;28;20076;-67
2023/06/26 09:11:25;;;;;;;6.25;1.08;;;;;;;24.18;100.00;100509.13;5030727;28;20493;-68
2023/06/26 09:13:52;;;;;;;7.68;1.20;;;;;;;23.96;100.00;100507.75;5030162;28;20064;-67
2023/06/26 09:16:26;;;;;;;3.58;1.00;;;;;;;24.37;100.00;100505.47;5030225;28;20046;-68
2023/06/26 09:18:53;;;;;;;5.20;1.00;;;;;;;23.54;100.00;100523.41;5027356;28;20052;-68
2023/06/26 09:21:24;;;;;;;4.50;1.00;;;;;;;22.96;100.00;100519.88;5031707;28;20076;-67
2023/06/26 09:23:52;;;;;;;6.00;1.20;;;;;;;22.72;100.00;100518.50;5029824;28;20054;-68
2023/06/26 09:26:21;;;;;;;5.88;1.13;;;;;;;22.55;100.00;100528.06;5028360;28;20055;-68
2023/06/26 09:28:48;;;;;;;5.95;1.10;;;;;;;22.82;100.00;100529.16;5029128;28;20095;-68
2023/06/26 09:31:16;;;;;;;6.85;1.38;;;;;;;23.61;100.00;100522.66;5018750;28;20046;-68
2023/06/26 09:34:03;;;;;;;5.88;1.27;;;;;;;24.04;100.00;100515.00;5026893;28;20068;-67
2023/06/26 09:36:35;;;;;;;2.25;0.75;;;;;;;24.38;100.00;100522.34;5026747;28;20037;-66
2023/06/26 09:39:10;;;;;;;4.25;1.15;;;;;;;24.46;100.00;100522.44;5028260;28;20041;-70
2023/06/26 09:41:42;;;;;;;7.85;1.40;;;;;;;24.42;95.09;100521.91;5029314;28;20053;-70
2023/06/26 09:44:11;;;;;;;4.85;0.95;;;;;;;23.99;100.00;100512.78;5020025;28;20088;-69
2023/06/26 09:46:38;;;;;;;2.65;0.70;;;;;;;24.09;100.00;100519.91;5025876;28;20050;-70
2023/06/26 09:49:12;;;;;;;3.30;0.85;;;;;;;23.68;100.00;100536.28;5029468;28;20479;-70
2023/06/26 09:51:41;;;;;;;5.50;0.90;;;;;;;23.38;100.00;100534.72;5029359;28;20053;-70
2023/06/26 09:54:09;;;;;;;5.57;1.13;;;;;;;23.12;100.00;100528.19;5028269;28;20073;-70
2023/06/26 09:56:38;;;;;;;1.60;0.75;;;;;;;22.91;100.00;100540.81;5024150;28;20048;-70
2023/06/26 09:59:06;;;;;;;3.10;0.88;;;;;;;22.73;100.00;100540.69;5028401;28;20248;-70
2023/06/26 10:01:33;;;;;;;6.32;0.90;;;;;;;22.12;100.00;100533.75;5019996;28;20559;-69
2023/06/26 10:04:00;;;;;;;2.72;0.90;;;;;;;22.09;100.00;100547.34;5023268;28;20053;-70
2023/06/26 10:06:35;;;;;;;4.18;1.30;;;;;;;22.63;100.00;100545.19;5027027;28;20053;-70
2023/06/26 10:09:03;;;;;;;5.57;1.10;;;;;;;22.97;100.00;100548.28;5020140;28;20523;-70
2023/06/26 10:11:41;;;;;;;4.72;1.17;;;;;;;23.16;96.11;100546.56;5014800;28;20522;-70
2023/06/26 10:14:11;;;;;;;5.70;0.93;;;;;;;23.52;96.68;100544.94;5026453;28;20085;-70
2023/06/26 10:16:45;;;;;;;4.00;1.05;;;;;;;23.73;86.76;100535.81;5025071;28;20483;-70
2023/06/26 10:19:14;;;;;;;4.47;1.10;;;;;;;24.19;88.12;100537.56;5014034;28;20053;-70
2023/06/26 10:21:41;;;;;;;5.38;1.00;;;;;;;24.51;80.44;100533.53;5023328;28;20050;-70
2023/06/26 10:24:11;;;;;;;2.03;0.70;;;;;;;24.13;81.23;100540.84;5024097;28;20491;-70
2023/06/26 10:26:44;;;;;;;5.72;0.77;;;;;;;24.17;78.97;100534.22;5025692;28;20061;-70
2023/06/26 10:29:13;;;;;;;5.68;1.05;;;;;;;24.05;77.83;100540.75;5020439;28;20083;-70
2023/06/26 10:31:42;;;;;;;3.70;1.00;;;;;;;23.61;80.34;100543.22;5030700;28;20057;-70
2023/06/26 10:34:09;;;;;;;3.55;0.80;;;;;;;23.76;85.12;100548.91;5011778;28;20061;-68
2023/06/26 10:36:36;;;;;;;4.30;1.10;;;;;;;23.46;89.07;100550.84;5018355;28;20498;-69
2023/06/26 10:39:05;;;;;;;2.97;0.70;;;;;;;23.24;95.37;100554.72;5023475;28;20132;-69
2023/06/26 10:41:42;;;;;;;6.50;0.88;;;;;;;23.15;100.00;100568.94;5029094;28;20451;-69
2023/06/26 10:44:40;;;;;;;6.45;1.38;;;;;;;22.82;100.00;100573.69;5028452;28;20081;-68
2023/06/26 10:47:07;;;;;;;6.30;1.00;;;;;;;22.46;100.00;100570.75;5029935;28;20057;-69
2023/06/26 10:49:36;;;;;;;4.40;0.90;;;;;;;22.14;100.00;100574.47;5023485;28;20060;-69
2023/06/26 10:52:03;;;;;;;2.58;1.00;;;;;;;22.40;100.00;100566.81;5027912;28;20128;-70
2023/06/26 10:54:32;;;;;;;3.85;0.80;;;;;;;22.17;99.83;100574.19;5034811;28;20550;-69
2023/06/26 10:56:59;;;;;;;2.85;0.80;;;;;;;22.42;93.17;100578.19;5036405;28;20137;-69
2023/06/26 10:59:27;;;;;;;3.35;0.75;;;;;;;22.45;86.26;100571.72;5035464;28;20045;-69
2023/06/26 11:02:03;;;;;;;3.63;0.73;;;;;;;22.35;78.92;100579.72;5028284;28;20487;-69
2023/06/26 11:04:49;;;;;;;;;;;;;;;22.86;76.55;100570.63;5027191;28;20479;-69
2023/06/26 11:07:23;;;;;;;2.20;0.70;;;;;;;23.25;75.11;100572.44;5025400;28;19925;-69
2023/06/26 11:10:18;;;;;;;5.35;0.90;;;;;;;24.18;77.75;100573.31;5024811;28;20146;-69
2023/06/26 11:12:47;;;;;;;3.45;0.98;;;;;;;24.45;74.45;100572.47;5030246;28;20079;-70
2023/06/26 11:15:19;;;;;;;2.28;0.70;;;;;;;24.51;74.50;100575.53;5029905;28;20517;-70
2023/06/26 11:17:47;;;;;;;3.95;0.90;;;;;;;24.39;71.74;100553.47;5027750;28;20133;-70
2023/06/26 11:20:18;;;;;;;3.30;0.90;;;;;;;24.94;75.00;100563.19;5030624;28;20050;-69
2023/06/26 11:22:45;;;;;;;4.43;0.85;;;;;;;24.75;72.88;100551.66;5031989;28;20543;-69
2023/06/26 11:25:12;;;;;;;3.40;0.90;;;;;;;24.26;70.51;100568.06;5024305;28;20045;-70